sensor_id;sensor_type;location;lat;lon;timestamp;P1;durP1;ratioP1;P2;durP2;ratioP2
44862;SDS011;30597;49.628;10.850;2022-07-10T00:00:32;3.30;;;2.87;;
44862;SDS011;30597;49.628;10.850;2022-07-10T00:02:58;3.53;;;3.30;;
44862;SDS011;30597;49.628;10.850;2022-07-10T00:05:24;3.67;;;3.40;;
44862;SDS011;30597;49.628;10.850;2022-07-10T00:07:50;4.33;;;3.13;;
44862;SDS011;30597;49.628;10.850;2022-07-10T00:10:16;3.80;;;3.50;;
44862;SDS011;30597;49.628;10.850;2022-07-10T00:12:43;3.27;;;3.07;;
44862;SDS011;30597;49.628;10.850;2022-07-10T00:15:10;3.40;;;3.10;;
44862;SDS011;30597;49.628;10.850;2022-07-10T00:17:36;3.87;;;3.57;;
44862;SDS011;30597;49.628;10.850;2022-07-10T00:20:04;3.93;;;3.63;;
44862;SDS011;30597;49.628;10.850;2022-07-10T00:22:31;3.67;;;3.37;;
44862;SDS011;30597;49.628;10.850;2022-07-10T00:24:59;3.73;;;3.43;;
44862;SDS011;30597;49.628;10.850;2022-07-10T00:27:28;4.30;;;2.97;;
44862;SDS011;30597;49.628;10.850;2022-07-10T00:29:54;4.00;;;3.40;;
44862;SDS011;30597;49.628;10.850;2022-07-10T00:32:19;3.70;;;3.40;;
44862;SDS011;30597;49.628;10.850;2022-07-10T00:34:45;3.30;;;3.10;;
44862;SDS011;30597;49.628;10.850;2022-07-10T00:37:10;3.30;;;3.10;;
44862;SDS011;30597;49.628;10.850;2022-07-10T00:39:36;3.27;;;3.00;;
44862;SDS011;30597;49.628;10.850;2022-07-10T00:42:06;3.37;;;3.07;;
44862;SDS011;30597;49.628;10.850;2022-07-10T00:44:35;3.40;;;3.20;;
44862;SDS011;30597;49.628;10.850;2022-07-10T00:47:01;3.37;;;3.13;;
44862;SDS011;30597;49.628;10.850;2022-07-10T00:49:28;3.80;;;3.50;;
44862;SDS011;30597;49.628;10.850;2022-07-10T00:51:53;3.57;;;3.23;;
44862;SDS011;30597;49.628;10.850;2022-07-10T00:54:20;3.10;;;2.90;;
44862;SDS011;30597;49.628;10.850;2022-07-10T00:56:46;3.50;;;3.20;;
44862;SDS011;30597;49.628;10.850;2022-07-10T00:59:11;4.37;;;3.97;;
44862;SDS011;30597;49.628;10.850;2022-07-10T01:01:37;3.87;;;3.27;;
44862;SDS011;30597;49.628;10.850;2022-07-10T01:04:03;3.67;;;3.37;;
44862;SDS011;30597;49.628;10.850;2022-07-10T01:06:29;4.03;;;3.43;;
44862;SDS011;30597;49.628;10.850;2022-07-10T01:08:54;3.70;;;3.40;;
44862;SDS011;30597;49.628;10.850;2022-07-10T01:11:20;3.53;;;3.23;;
44862;SDS011;30597;49.628;10.850;2022-07-10T01:13:46;3.27;;;3.07;;
44862;SDS011;30597;49.628;10.850;2022-07-10T01:16:12;3.50;;;3.20;;
44862;SDS011;30597;49.628;10.850;2022-07-10T01:18:38;3.43;;;3.20;;
44862;SDS011;30597;49.628;10.850;2022-07-10T01:21:04;3.00;;;2.70;;
44862;SDS011;30597;49.628;10.850;2022-07-10T01:23:30;5.20;;;3.63;;
44862;SDS011;30597;49.628;10.850;2022-07-10T01:25:56;4.20;;;3.80;;
44862;SDS011;30597;49.628;10.850;2022-07-10T01:28:21;3.47;;;3.17;;
44862;SDS011;30597;49.628;10.850;2022-07-10T01:30:47;3.10;;;2.90;;
44862;SDS011;30597;49.628;10.850;2022-07-10T01:33:13;3.23;;;2.90;;
44862;SDS011;30597;49.628;10.850;2022-07-10T01:35:39;3.40;;;3.00;;
44862;SDS011;30597;49.628;10.850;2022-07-10T01:38:05;3.57;;;3.27;;
44862;SDS011;30597;49.628;10.850;2022-07-10T01:40:31;3.47;;;3.17;;
44862;SDS011;30597;49.628;10.850;2022-07-10T01:42:57;3.27;;;3.00;;
44862;SDS011;30597;49.628;10.850;2022-07-10T01:45:23;3.13;;;2.93;;
44862;SDS011;30597;49.628;10.850;2022-07-10T01:47:49;3.50;;;3.23;;
44862;SDS011;30597;49.628;10.850;2022-07-10T01:50:15;5.10;;;3.77;;
44862;SDS011;30597;49.628;10.850;2022-07-10T01:52:40;2.93;;;2.73;;
44862;SDS011;30597;49.628;10.850;2022-07-10T01:55:06;4.03;;;2.70;;
44862;SDS011;30597;49.628;10.850;2022-07-10T01:57:32;3.10;;;2.90;;
44862;SDS011;30597;49.628;10.850;2022-07-10T01:59:58;3.67;;;3.30;;
44862;SDS011;30597;49.628;10.850;2022-07-10T02:02:24;3.40;;;3.10;;
44862;SDS011;30597;49.628;10.850;2022-07-10T02:04:49;4.23;;;3.07;;
44862;SDS011;30597;49.628;10.850;2022-07-10T02:07:18;2.90;;;2.67;;
44862;SDS011;30597;49.628;10.850;2022-07-10T02:09:46;4.53;;;2.70;;
44862;SDS011;30597;49.628;10.850;2022-07-10T02:12:12;3.07;;;2.87;;
44862;SDS011;30597;49.628;10.850;2022-07-10T02:14:39;3.30;;;3.00;;
44862;SDS011;30597;49.628;10.850;2022-07-10T02:17:06;2.87;;;2.63;;
44862;SDS011;30597;49.628;10.850;2022-07-10T02:19:32;4.93;;;3.50;;
44862;SDS011;30597;49.628;10.850;2022-07-10T02:21:59;2.70;;;2.50;;
44862;SDS011;30597;49.628;10.850;2022-07-10T02:24:24;2.70;;;2.37;;
44862;SDS011;30597;49.628;10.850;2022-07-10T02:26:50;3.00;;;2.70;;
44862;SDS011;30597;49.628;10.850;2022-07-10T02:29:16;3.60;;;2.50;;
44862;SDS011;30597;49.628;10.850;2022-07-10T02:31:42;3.40;;;3.10;;
44862;SDS011;30597;49.628;10.850;2022-07-10T02:34:08;4.20;;;2.83;;
44862;SDS011;30597;49.628;10.850;2022-07-10T02:36:35;3.13;;;2.77;;
44862;SDS011;30597;49.628;10.850;2022-07-10T02:39:01;2.57;;;2.37;;
44862;SDS011;30597;49.628;10.850;2022-07-10T02:41:27;3.10;;;2.70;;
44862;SDS011;30597;49.628;10.850;2022-07-10T02:43:53;2.60;;;2.40;;
44862;SDS011;30597;49.628;10.850;2022-07-10T02:46:19;4.03;;;2.47;;
44862;SDS011;30597;49.628;10.850;2022-07-10T02:48:44;2.60;;;2.40;;
44862;SDS011;30597;49.628;10.850;2022-07-10T02:51:10;2.43;;;2.10;;
44862;SDS011;30597;49.628;10.850;2022-07-10T02:53:35;4.57;;;3.20;;
44862;SDS011;30597;49.628;10.850;2022-07-10T02:56:01;4.50;;;2.60;;
44862;SDS011;30597;49.628;10.850;2022-07-10T02:58:26;2.67;;;2.47;;
44862;SDS011;30597;49.628;10.850;2022-07-10T03:00:52;3.77;;;2.30;;
44862;SDS011;30597;49.628;10.850;2022-07-10T03:03:17;2.80;;;2.57;;
44862;SDS011;30597;49.628;10.850;2022-07-10T03:05:44;2.10;;;2.00;;
44862;SDS011;30597;49.628;10.850;2022-07-10T03:08:10;3.37;;;1.90;;
44862;SDS011;30597;49.628;10.850;2022-07-10T03:10:36;3.47;;;2.20;;
44862;SDS011;30597;49.628;10.850;2022-07-10T03:13:01;4.37;;;2.07;;
44862;SDS011;30597;49.628;10.850;2022-07-10T03:15:27;2.40;;;1.73;;
44862;SDS011;30597;49.628;10.850;2022-07-10T03:17:53;2.53;;;2.30;;
44862;SDS011;30597;49.628;10.850;2022-07-10T03:20:18;2.53;;;1.93;;
44862;SDS011;30597;49.628;10.850;2022-07-10T03:22:44;3.13;;;2.17;;
44862;SDS011;30597;49.628;10.850;2022-07-10T03:25:09;3.10;;;2.27;;
44862;SDS011;30597;49.628;10.850;2022-07-10T03:27:35;2.10;;;1.60;;
44862;SDS011;30597;49.628;10.850;2022-07-10T03:30:00;3.43;;;2.10;;
44862;SDS011;30597;49.628;10.850;2022-07-10T03:32:26;2.37;;;2.07;;
44862;SDS011;30597;49.628;10.850;2022-07-10T03:34:52;2.93;;;2.30;;
44862;SDS011;30597;49.628;10.850;2022-07-10T03:37:18;4.40;;;2.27;;
44862;SDS011;30597;49.628;10.850;2022-07-10T03:39:43;2.10;;;1.60;;
44862;SDS011;30597;49.628;10.850;2022-07-10T03:42:09;2.63;;;2.00;;
44862;SDS011;30597;49.628;10.850;2022-07-10T03:44:34;2.37;;;2.00;;
44862;SDS011;30597;49.628;10.850;2022-07-10T03:47:00;2.23;;;1.53;;
44862;SDS011;30597;49.628;10.850;2022-07-10T03:49:27;2.17;;;1.97;;
44862;SDS011;30597;49.628;10.850;2022-07-10T03:51:52;2.30;;;1.90;;
44862;SDS011;30597;49.628;10.850;2022-07-10T03:54:18;2.07;;;1.77;;
44862;SDS011;30597;49.628;10.850;2022-07-10T03:56:44;2.63;;;2.10;;
44862;SDS011;30597;49.628;10.850;2022-07-10T03:59:28;2.50;;;1.90;;
44862;SDS011;30597;49.628;10.850;2022-07-10T04:01:54;2.47;;;2.00;;
44862;SDS011;30597;49.628;10.850;2022-07-10T04:04:19;2.73;;;1.77;;
44862;SDS011;30597;49.628;10.850;2022-07-10T04:06:45;2.30;;;2.10;;
44862;SDS011;30597;49.628;10.850;2022-07-10T04:09:10;2.70;;;1.83;;
44862;SDS011;30597;49.628;10.850;2022-07-10T04:11:36;3.07;;;1.87;;
44862;SDS011;30597;49.628;10.850;2022-07-10T04:14:01;2.53;;;1.57;;
44862;SDS011;30597;49.628;10.850;2022-07-10T04:16:27;3.50;;;2.73;;
44862;SDS011;30597;49.628;10.850;2022-07-10T04:18:52;3.33;;;1.57;;
44862;SDS011;30597;49.628;10.850;2022-07-10T04:21:18;2.83;;;2.10;;
44862;SDS011;30597;49.628;10.850;2022-07-10T04:23:44;2.30;;;1.90;;
44862;SDS011;30597;49.628;10.850;2022-07-10T04:26:09;3.30;;;2.00;;
44862;SDS011;30597;49.628;10.850;2022-07-10T04:28:35;2.13;;;1.90;;
44862;SDS011;30597;49.628;10.850;2022-07-10T04:31:00;3.03;;;1.70;;
44862;SDS011;30597;49.628;10.850;2022-07-10T04:33:26;4.80;;;2.03;;
44862;SDS011;30597;49.628;10.850;2022-07-10T04:35:52;2.50;;;2.30;;
44862;SDS011;30597;49.628;10.850;2022-07-10T04:38:17;2.50;;;1.70;;
44862;SDS011;30597;49.628;10.850;2022-07-10T04:40:43;2.93;;;1.80;;
44862;SDS011;30597;49.628;10.850;2022-07-10T04:43:09;3.73;;;1.80;;
44862;SDS011;30597;49.628;10.850;2022-07-10T04:45:37;2.53;;;2.33;;
44862;SDS011;30597;49.628;10.850;2022-07-10T04:48:03;1.87;;;1.70;;
44862;SDS011;30597;49.628;10.850;2022-07-10T04:50:30;4.03;;;2.30;;
44862;SDS011;30597;49.628;10.850;2022-07-10T04:52:55;2.87;;;1.90;;
44862;SDS011;30597;49.628;10.850;2022-07-10T04:55:21;1.77;;;1.60;;
44862;SDS011;30597;49.628;10.850;2022-07-10T04:57:47;1.90;;;1.70;;
44862;SDS011;30597;49.628;10.850;2022-07-10T05:00:13;2.20;;;1.67;;
44862;SDS011;30597;49.628;10.850;2022-07-10T05:02:39;2.00;;;1.40;;
44862;SDS011;30597;49.628;10.850;2022-07-10T05:05:04;1.97;;;1.30;;
44862;SDS011;30597;49.628;10.850;2022-07-10T05:07:30;1.67;;;1.20;;
44862;SDS011;30597;49.628;10.850;2022-07-10T05:09:56;2.47;;;1.70;;
44862;SDS011;30597;49.628;10.850;2022-07-10T05:12:21;2.03;;;1.57;;
44862;SDS011;30597;49.628;10.850;2022-07-10T05:14:47;1.70;;;1.60;;
44862;SDS011;30597;49.628;10.850;2022-07-10T05:17:12;2.80;;;1.30;;
44862;SDS011;30597;49.628;10.850;2022-07-10T05:19:38;1.83;;;1.13;;
44862;SDS011;30597;49.628;10.850;2022-07-10T05:22:04;4.03;;;1.63;;
44862;SDS011;30597;49.628;10.850;2022-07-10T05:24:29;2.70;;;1.50;;
44862;SDS011;30597;49.628;10.850;2022-07-10T05:26:55;2.50;;;1.40;;
44862;SDS011;30597;49.628;10.850;2022-07-10T05:29:20;3.33;;;1.00;;
44862;SDS011;30597;49.628;10.850;2022-07-10T05:31:46;1.50;;;0.93;;
44862;SDS011;30597;49.628;10.850;2022-07-10T05:34:11;4.37;;;0.97;;
44862;SDS011;30597;49.628;10.850;2022-07-10T05:36:37;2.20;;;1.03;;
44862;SDS011;30597;49.628;10.850;2022-07-10T05:39:02;2.07;;;1.00;;
44862;SDS011;30597;49.628;10.850;2022-07-10T05:41:28;5.00;;;0.83;;
44862;SDS011;30597;49.628;10.850;2022-07-10T05:43:54;3.23;;;1.07;;
44862;SDS011;30597;49.628;10.850;2022-07-10T05:46:20;2.80;;;1.10;;
44862;SDS011;30597;49.628;10.850;2022-07-10T05:48:45;1.10;;;0.80;;
44862;SDS011;30597;49.628;10.850;2022-07-10T05:51:11;3.03;;;1.57;;
44862;SDS011;30597;49.628;10.850;2022-07-10T05:53:36;2.10;;;0.90;;
44862;SDS011;30597;49.628;10.850;2022-07-10T05:56:02;2.50;;;1.13;;
44862;SDS011;30597;49.628;10.850;2022-07-10T05:58:28;6.50;;;1.20;;
44862;SDS011;30597;49.628;10.850;2022-07-10T06:00:54;3.37;;;1.37;;
44862;SDS011;30597;49.628;10.850;2022-07-10T06:03:20;2.80;;;0.80;;
44862;SDS011;30597;49.628;10.850;2022-07-10T06:05:46;2.07;;;0.73;;
44862;SDS011;30597;49.628;10.850;2022-07-10T06:08:12;2.40;;;1.20;;
44862;SDS011;30597;49.628;10.850;2022-07-10T06:10:37;1.93;;;0.90;;
44862;SDS011;30597;49.628;10.850;2022-07-10T06:13:05;2.80;;;1.00;;
44862;SDS011;30597;49.628;10.850;2022-07-10T06:15:31;1.63;;;1.00;;
44862;SDS011;30597;49.628;10.850;2022-07-10T06:17:57;2.20;;;1.13;;
44862;SDS011;30597;49.628;10.850;2022-07-10T06:20:25;3.10;;;1.10;;
44862;SDS011;30597;49.628;10.850;2022-07-10T06:22:51;2.70;;;0.93;;
44862;SDS011;30597;49.628;10.850;2022-07-10T06:25:16;4.60;;;1.20;;
44862;SDS011;30597;49.628;10.850;2022-07-10T06:27:42;4.13;;;0.83;;
44862;SDS011;30597;49.628;10.850;2022-07-10T06:30:08;1.40;;;0.93;;
44862;SDS011;30597;49.628;10.850;2022-07-10T06:32:34;3.97;;;1.13;;
44862;SDS011;30597;49.628;10.850;2022-07-10T06:34:59;3.00;;;0.90;;
44862;SDS011;30597;49.628;10.850;2022-07-10T06:37:25;2.63;;;1.10;;
44862;SDS011;30597;49.628;10.850;2022-07-10T06:39:58;1.13;;;0.83;;
44862;SDS011;30597;49.628;10.850;2022-07-10T06:42:24;3.20;;;1.20;;
44862;SDS011;30597;49.628;10.850;2022-07-10T06:44:50;2.33;;;1.37;;
44862;SDS011;30597;49.628;10.850;2022-07-10T06:47:17;3.53;;;1.10;;
44862;SDS011;30597;49.628;10.850;2022-07-10T06:50:05;2.40;;;1.00;;
44862;SDS011;30597;49.628;10.850;2022-07-10T06:52:32;3.73;;;1.10;;
44862;SDS011;30597;49.628;10.850;2022-07-10T06:55:00;4.03;;;1.10;;
44862;SDS011;30597;49.628;10.850;2022-07-10T06:57:27;2.00;;;1.00;;
44862;SDS011;30597;49.628;10.850;2022-07-10T06:59:53;1.17;;;0.83;;
44862;SDS011;30597;49.628;10.850;2022-07-10T07:02:19;1.50;;;0.70;;
44862;SDS011;30597;49.628;10.850;2022-07-10T07:04:44;1.80;;;0.90;;
44862;SDS011;30597;49.628;10.850;2022-07-10T07:07:11;2.07;;;1.33;;
44862;SDS011;30597;49.628;10.850;2022-07-10T07:09:38;2.87;;;1.00;;
44862;SDS011;30597;49.628;10.850;2022-07-10T07:12:04;2.67;;;1.20;;
44862;SDS011;30597;49.628;10.850;2022-07-10T07:14:30;1.83;;;0.80;;
44862;SDS011;30597;49.628;10.850;2022-07-10T07:16:56;1.80;;;0.90;;
44862;SDS011;30597;49.628;10.850;2022-07-10T07:19:24;3.13;;;1.00;;
44862;SDS011;30597;49.628;10.850;2022-07-10T07:21:59;1.93;;;0.97;;
44862;SDS011;30597;49.628;10.850;2022-07-10T07:24:43;1.77;;;0.90;;
44862;SDS011;30597;49.628;10.850;2022-07-10T07:27:09;2.47;;;1.07;;
44862;SDS011;30597;49.628;10.850;2022-07-10T07:29:36;3.30;;;0.80;;
44862;SDS011;30597;49.628;10.850;2022-07-10T07:32:02;1.30;;;0.80;;
44862;SDS011;30597;49.628;10.850;2022-07-10T07:34:27;1.80;;;0.70;;
44862;SDS011;30597;49.628;10.850;2022-07-10T07:36:53;2.87;;;0.93;;
44862;SDS011;30597;49.628;10.850;2022-07-10T07:39:18;2.20;;;1.10;;
44862;SDS011;30597;49.628;10.850;2022-07-10T07:41:44;2.63;;;0.80;;
44862;SDS011;30597;49.628;10.850;2022-07-10T07:44:09;1.43;;;0.60;;
44862;SDS011;30597;49.628;10.850;2022-07-10T07:46:37;1.57;;;0.90;;
44862;SDS011;30597;49.628;10.850;2022-07-10T07:49:02;1.70;;;0.70;;
44862;SDS011;30597;49.628;10.850;2022-07-10T07:51:28;1.57;;;0.80;;
44862;SDS011;30597;49.628;10.850;2022-07-10T07:53:53;2.00;;;0.60;;
44862;SDS011;30597;49.628;10.850;2022-07-10T07:56:19;4.40;;;1.00;;
44862;SDS011;30597;49.628;10.850;2022-07-10T07:58:45;3.10;;;0.70;;
44862;SDS011;30597;49.628;10.850;2022-07-10T08:01:10;1.60;;;0.67;;
44862;SDS011;30597;49.628;10.850;2022-07-10T08:03:36;2.60;;;0.80;;
44862;SDS011;30597;49.628;10.850;2022-07-10T08:06:01;2.50;;;0.90;;
44862;SDS011;30597;49.628;10.850;2022-07-10T08:08:27;2.40;;;1.00;;
44862;SDS011;30597;49.628;10.850;2022-07-10T08:10:52;1.60;;;0.90;;
44862;SDS011;30597;49.628;10.850;2022-07-10T08:13:18;1.53;;;0.70;;
44862;SDS011;30597;49.628;10.850;2022-07-10T08:15:43;1.93;;;0.90;;
44862;SDS011;30597;49.628;10.850;2022-07-10T08:18:09;1.77;;;1.00;;
44862;SDS011;30597;49.628;10.850;2022-07-10T08:20:35;1.93;;;0.97;;
44862;SDS011;30597;49.628;10.850;2022-07-10T08:23:00;1.57;;;1.00;;
44862;SDS011;30597;49.628;10.850;2022-07-10T08:25:29;3.37;;;1.20;;
44862;SDS011;30597;49.628;10.850;2022-07-10T08:27:59;2.67;;;0.73;;
44862;SDS011;30597;49.628;10.850;2022-07-10T08:30:25;1.50;;;0.90;;
44862;SDS011;30597;49.628;10.850;2022-07-10T08:32:50;2.20;;;0.90;;
44862;SDS011;30597;49.628;10.850;2022-07-10T08:35:16;3.70;;;0.90;;
44862;SDS011;30597;49.628;10.850;2022-07-10T08:37:42;2.50;;;0.87;;
44862;SDS011;30597;49.628;10.850;2022-07-10T08:40:10;1.30;;;1.13;;
44862;SDS011;30597;49.628;10.850;2022-07-10T08:42:38;1.20;;;0.80;;
44862;SDS011;30597;49.628;10.850;2022-07-10T08:45:05;1.40;;;0.73;;
44862;SDS011;30597;49.628;10.850;2022-07-10T08:47:35;2.30;;;0.90;;
44862;SDS011;30597;49.628;10.850;2022-07-10T08:50:02;1.40;;;0.70;;
44862;SDS011;30597;49.628;10.850;2022-07-10T08:52:44;2.83;;;1.20;;
44862;SDS011;30597;49.628;10.850;2022-07-10T08:55:24;5.83;;;1.40;;
44862;SDS011;30597;49.628;10.850;2022-07-10T08:57:51;1.43;;;0.60;;
44862;SDS011;30597;49.628;10.850;2022-07-10T09:00:17;1.27;;;0.67;;
44862;SDS011;30597;49.628;10.850;2022-07-10T09:02:43;1.50;;;0.70;;
44862;SDS011;30597;49.628;10.850;2022-07-10T09:05:08;2.03;;;0.90;;
44862;SDS011;30597;49.628;10.850;2022-07-10T09:07:37;1.40;;;0.90;;
44862;SDS011;30597;49.628;10.850;2022-07-10T09:10:06;1.20;;;0.60;;
44862;SDS011;30597;49.628;10.850;2022-07-10T09:15:29;2.23;;;1.00;;
44862;SDS011;30597;49.628;10.850;2022-07-10T09:17:58;1.07;;;0.60;;
44862;SDS011;30597;49.628;10.850;2022-07-10T09:20:26;1.17;;;0.77;;
44862;SDS011;30597;49.628;10.850;2022-07-10T09:23:18;1.60;;;0.80;;
44862;SDS011;30597;49.628;10.850;2022-07-10T09:25:48;2.20;;;0.83;;
44862;SDS011;30597;49.628;10.850;2022-07-10T09:28:18;1.77;;;0.67;;
44862;SDS011;30597;49.628;10.850;2022-07-10T09:30:45;3.23;;;1.07;;
44862;SDS011;30597;49.628;10.850;2022-07-10T09:41:13;2.40;;;0.90;;
44862;SDS011;30597;49.628;10.850;2022-07-10T09:43:43;2.63;;;0.80;;
44862;SDS011;30597;49.628;10.850;2022-07-10T09:46:13;1.97;;;0.73;;
44862;SDS011;30597;49.628;10.850;2022-07-10T09:48:39;1.17;;;0.67;;
44862;SDS011;30597;49.628;10.850;2022-07-10T09:51:07;1.70;;;0.73;;
44862;SDS011;30597;49.628;10.850;2022-07-10T09:53:43;2.37;;;1.00;;
44862;SDS011;30597;49.628;10.850;2022-07-10T09:56:12;2.20;;;0.90;;
44862;SDS011;30597;49.628;10.850;2022-07-10T09:58:39;2.20;;;0.80;;
44862;SDS011;30597;49.628;10.850;2022-07-10T10:01:05;1.70;;;0.87;;
44862;SDS011;30597;49.628;10.850;2022-07-10T10:03:33;3.23;;;1.30;;
44862;SDS011;30597;49.628;10.850;2022-07-10T10:06:14;3.20;;;1.40;;
44862;SDS011;30597;49.628;10.850;2022-07-10T10:08:48;1.47;;;0.93;;
44862;SDS011;30597;49.628;10.850;2022-07-10T10:11:21;3.57;;;0.80;;
44862;SDS011;30597;49.628;10.850;2022-07-10T10:13:50;1.77;;;1.00;;
44862;SDS011;30597;49.628;10.850;2022-07-10T10:16:17;1.90;;;1.07;;
44862;SDS011;30597;49.628;10.850;2022-07-10T10:18:44;2.43;;;0.80;;
44862;SDS011;30597;49.628;10.850;2022-07-10T10:21:30;2.00;;;1.07;;
44862;SDS011;30597;49.628;10.850;2022-07-10T10:23:57;3.60;;;1.10;;
44862;SDS011;30597;49.628;10.850;2022-07-10T10:26:25;2.50;;;1.10;;
44862;SDS011;30597;49.628;10.850;2022-07-10T10:28:51;3.10;;;0.97;;
44862;SDS011;30597;49.628;10.850;2022-07-10T10:31:17;2.03;;;0.93;;
44862;SDS011;30597;49.628;10.850;2022-07-10T10:33:45;3.50;;;0.90;;
44862;SDS011;30597;49.628;10.850;2022-07-10T10:36:15;1.73;;;0.97;;
44862;SDS011;30597;49.628;10.850;2022-07-10T10:39:09;2.40;;;1.20;;
44862;SDS011;30597;49.628;10.850;2022-07-10T10:41:52;3.03;;;1.23;;
44862;SDS011;30597;49.628;10.850;2022-07-10T10:44:19;2.90;;;1.10;;
44862;SDS011;30597;49.628;10.850;2022-07-10T10:49:14;2.40;;;1.50;;
44862;SDS011;30597;49.628;10.850;2022-07-10T10:59:57;4.50;;;1.33;;
44862;SDS011;30597;49.628;10.850;2022-07-10T11:07:59;1.70;;;1.13;;
44862;SDS011;30597;49.628;10.850;2022-07-10T11:10:29;4.27;;;1.47;;
44862;SDS011;30597;49.628;10.850;2022-07-10T11:12:59;3.03;;;1.20;;
44862;SDS011;30597;49.628;10.850;2022-07-10T11:15:34;3.03;;;1.20;;
44862;SDS011;30597;49.628;10.850;2022-07-10T11:18:11;2.47;;;1.20;;
44862;SDS011;30597;49.628;10.850;2022-07-10T11:20:38;3.40;;;1.40;;
44862;SDS011;30597;49.628;10.850;2022-07-10T11:26:19;2.13;;;1.40;;
44862;SDS011;30597;49.628;10.850;2022-07-10T11:28:50;2.20;;;1.13;;
44862;SDS011;30597;49.628;10.850;2022-07-10T11:31:20;2.03;;;1.07;;
44862;SDS011;30597;49.628;10.850;2022-07-10T11:33:51;1.87;;;1.10;;
44862;SDS011;30597;49.628;10.850;2022-07-10T11:36:19;2.00;;;1.17;;
44862;SDS011;30597;49.628;10.850;2022-07-10T11:38:55;2.60;;;1.07;;
44862;SDS011;30597;49.628;10.850;2022-07-10T11:41:31;2.00;;;1.43;;
44862;SDS011;30597;49.628;10.850;2022-07-10T11:43:58;2.47;;;1.23;;
44862;SDS011;30597;49.628;10.850;2022-07-10T11:46:25;1.50;;;1.10;;
44862;SDS011;30597;49.628;10.850;2022-07-10T11:48:53;2.60;;;1.90;;
44862;SDS011;30597;49.628;10.850;2022-07-10T11:51:28;1.40;;;1.10;;
44862;SDS011;30597;49.628;10.850;2022-07-10T11:54:02;4.47;;;2.07;;
44862;SDS011;30597;49.628;10.850;2022-07-10T11:56:29;2.20;;;1.10;;
44862;SDS011;30597;49.628;10.850;2022-07-10T12:01:26;1.83;;;1.03;;
44862;SDS011;30597;49.628;10.850;2022-07-10T12:03:54;3.57;;;1.20;;
44862;SDS011;30597;49.628;10.850;2022-07-10T12:06:24;3.17;;;1.40;;
44862;SDS011;30597;49.628;10.850;2022-07-10T12:08:50;3.07;;;1.50;;
44862;SDS011;30597;49.628;10.850;2022-07-10T12:11:17;1.83;;;0.97;;
44862;SDS011;30597;49.628;10.850;2022-07-10T12:13:44;1.30;;;1.00;;
44862;SDS011;30597;49.628;10.850;2022-07-10T12:16:11;3.40;;;1.10;;
44862;SDS011;30597;49.628;10.850;2022-07-10T12:18:37;2.80;;;1.53;;
44862;SDS011;30597;49.628;10.850;2022-07-10T12:21:05;1.63;;;0.90;;
44862;SDS011;30597;49.628;10.850;2022-07-10T12:23:31;2.73;;;1.00;;
44862;SDS011;30597;49.628;10.850;2022-07-10T12:25:59;1.63;;;1.07;;
44862;SDS011;30597;49.628;10.850;2022-07-10T12:28:27;4.07;;;1.67;;
44862;SDS011;30597;49.628;10.850;2022-07-10T12:30:52;2.00;;;1.70;;
44862;SDS011;30597;49.628;10.850;2022-07-10T12:33:19;1.50;;;1.27;;
44862;SDS011;30597;49.628;10.850;2022-07-10T12:38:18;2.27;;;1.60;;
44862;SDS011;30597;49.628;10.850;2022-07-10T12:40:45;1.80;;;1.30;;
44862;SDS011;30597;49.628;10.850;2022-07-10T12:43:11;2.77;;;1.13;;
44862;SDS011;30597;49.628;10.850;2022-07-10T12:45:37;1.70;;;1.27;;
44862;SDS011;30597;49.628;10.850;2022-07-10T12:48:03;4.07;;;1.40;;
44862;SDS011;30597;49.628;10.850;2022-07-10T12:50:31;1.60;;;1.30;;
44862;SDS011;30597;49.628;10.850;2022-07-10T12:53:06;2.43;;;1.20;;
44862;SDS011;30597;49.628;10.850;2022-07-10T12:55:39;1.90;;;1.07;;
44862;SDS011;30597;49.628;10.850;2022-07-10T12:58:07;2.00;;;1.10;;
44862;SDS011;30597;49.628;10.850;2022-07-10T13:00:34;1.80;;;1.00;;
44862;SDS011;30597;49.628;10.850;2022-07-10T13:03:01;1.67;;;1.00;;
44862;SDS011;30597;49.628;10.850;2022-07-10T13:05:36;1.70;;;1.20;;
44862;SDS011;30597;49.628;10.850;2022-07-10T13:10:44;2.20;;;1.03;;
44862;SDS011;30597;49.628;10.850;2022-07-10T13:13:12;1.53;;;1.03;;
44862;SDS011;30597;49.628;10.850;2022-07-10T13:15:38;1.77;;;0.90;;
44862;SDS011;30597;49.628;10.850;2022-07-10T13:18:22;1.80;;;1.30;;
44862;SDS011;30597;49.628;10.850;2022-07-10T13:20:49;2.23;;;0.87;;
44862;SDS011;30597;49.628;10.850;2022-07-10T13:23:16;2.87;;;1.10;;
44862;SDS011;30597;49.628;10.850;2022-07-10T13:25:46;3.00;;;1.27;;
44862;SDS011;30597;49.628;10.850;2022-07-10T13:28:12;2.40;;;1.33;;
44862;SDS011;30597;49.628;10.850;2022-07-10T13:30:37;1.67;;;1.10;;
44862;SDS011;30597;49.628;10.850;2022-07-10T13:33:03;1.50;;;0.93;;
44862;SDS011;30597;49.628;10.850;2022-07-10T13:35:29;2.80;;;1.20;;
44862;SDS011;30597;49.628;10.850;2022-07-10T13:37:56;1.53;;;0.80;;
44862;SDS011;30597;49.628;10.850;2022-07-10T13:40:27;1.80;;;0.80;;
44862;SDS011;30597;49.628;10.850;2022-07-10T13:42:52;9.00;;;6.00;;
44862;SDS011;30597;49.628;10.850;2022-07-10T13:45:18;5.40;;;2.80;;
44862;SDS011;30597;49.628;10.850;2022-07-10T13:47:46;3.40;;;2.37;;
44862;SDS011;30597;49.628;10.850;2022-07-10T13:50:12;4.63;;;3.30;;
44862;SDS011;30597;49.628;10.850;2022-07-10T13:52:37;4.23;;;1.90;;
44862;SDS011;30597;49.628;10.850;2022-07-10T13:55:03;5.43;;;1.70;;
44862;SDS011;30597;49.628;10.850;2022-07-10T13:57:30;3.03;;;1.73;;
44862;SDS011;30597;49.628;10.850;2022-07-10T13:59:56;2.90;;;1.80;;
44862;SDS011;30597;49.628;10.850;2022-07-10T14:02:21;3.23;;;1.80;;
44862;SDS011;30597;49.628;10.850;2022-07-10T14:04:47;2.60;;;1.50;;
44862;SDS011;30597;49.628;10.850;2022-07-10T14:07:13;2.90;;;1.87;;
44862;SDS011;30597;49.628;10.850;2022-07-10T14:09:38;2.20;;;1.40;;
44862;SDS011;30597;49.628;10.850;2022-07-10T14:12:05;5.00;;;1.67;;
44862;SDS011;30597;49.628;10.850;2022-07-10T14:14:31;3.37;;;1.60;;
44862;SDS011;30597;49.628;10.850;2022-07-10T14:16:57;3.07;;;1.83;;
44862;SDS011;30597;49.628;10.850;2022-07-10T14:19:22;4.63;;;1.60;;
44862;SDS011;30597;49.628;10.850;2022-07-10T14:21:48;2.07;;;1.37;;
44862;SDS011;30597;49.628;10.850;2022-07-10T14:24:13;4.00;;;2.00;;
44862;SDS011;30597;49.628;10.850;2022-07-10T14:26:39;2.33;;;1.10;;
44862;SDS011;30597;49.628;10.850;2022-07-10T14:29:05;2.97;;;1.30;;
44862;SDS011;30597;49.628;10.850;2022-07-10T14:31:31;5.13;;;1.63;;
44862;SDS011;30597;49.628;10.850;2022-07-10T14:33:57;1.90;;;1.00;;
44862;SDS011;30597;49.628;10.850;2022-07-10T14:36:23;1.60;;;1.20;;
44862;SDS011;30597;49.628;10.850;2022-07-10T14:38:51;2.30;;;1.60;;
44862;SDS011;30597;49.628;10.850;2022-07-10T14:41:18;4.00;;;1.67;;
44862;SDS011;30597;49.628;10.850;2022-07-10T14:43:43;3.53;;;2.07;;
44862;SDS011;30597;49.628;10.850;2022-07-10T14:46:09;2.90;;;1.73;;
44862;SDS011;30597;49.628;10.850;2022-07-10T14:48:34;2.90;;;1.57;;
44862;SDS011;30597;49.628;10.850;2022-07-10T14:51:01;4.07;;;1.70;;
44862;SDS011;30597;49.628;10.850;2022-07-10T14:53:26;5.67;;;1.93;;
44862;SDS011;30597;49.628;10.850;2022-07-10T14:55:52;2.67;;;1.50;;
44862;SDS011;30597;49.628;10.850;2022-07-10T14:58:18;4.03;;;2.00;;
44862;SDS011;30597;49.628;10.850;2022-07-10T15:00:43;3.30;;;1.70;;
44862;SDS011;30597;49.628;10.850;2022-07-10T15:03:09;3.27;;;1.53;;
44862;SDS011;30597;49.628;10.850;2022-07-10T15:05:35;3.63;;;2.20;;
44862;SDS011;30597;49.628;10.850;2022-07-10T15:08:00;2.40;;;1.80;;
44862;SDS011;30597;49.628;10.850;2022-07-10T15:10:28;3.07;;;1.97;;